createdAt,value
2023-05-03T00:02:34.778Z,2.70
2023-05-03T00:05:44.913Z,3.50
2023-05-03T00:08:53.466Z,6.70
2023-05-03T00:12:01.868Z,5.00
2023-05-03T00:15:10.389Z,4.80
2023-05-03T00:18:12.291Z,8.10
2023-05-03T00:21:21.643Z,6.60
2023-05-03T00:24:29.969Z,6.80
2023-05-03T00:27:39.352Z,7.80
2023-05-03T00:30:48.230Z,4.70
2023-05-03T00:33:57.402Z,6.30
2023-05-03T00:37:06.662Z,7.80
2023-05-03T00:40:15.326Z,5.30
2023-05-03T00:43:24.028Z,4.40
2023-05-03T00:46:33.991Z,6.90
2023-05-03T00:49:42.528Z,8.80
2023-05-03T00:52:51.388Z,4.20
2023-05-03T00:55:59.302Z,7.50
2023-05-03T00:59:10.376Z,5.20
2023-05-03T01:02:19.619Z,7.10
2023-05-03T01:05:27.858Z,7.80
2023-05-03T01:08:28.498Z,7.40
2023-05-03T01:11:37.420Z,5.70
2023-05-03T01:14:45.696Z,7.40
2023-05-03T01:17:56.348Z,8.90
2023-05-03T01:21:05.023Z,7.00
2023-05-03T01:24:14.065Z,4.70
2023-05-03T01:27:23.426Z,12.60
2023-05-03T01:30:32.108Z,8.90
2023-05-03T01:33:40.852Z,7.00
2023-05-03T01:36:49.699Z,5.30
2023-05-03T01:39:59.866Z,8.00
2023-05-03T01:43:09.636Z,8.30
2023-05-03T01:46:17.778Z,8.00
2023-05-03T01:49:28.153Z,5.30
2023-05-03T01:52:36.623Z,7.50
2023-05-03T01:55:45.177Z,7.20
2023-05-03T01:58:55.010Z,5.90
2023-05-03T02:02:03.820Z,7.50
2023-05-03T02:05:11.909Z,6.40
2023-05-03T02:08:22.799Z,10.90
2023-05-03T02:11:31.880Z,8.10
2023-05-03T02:14:40.180Z,8.60
2023-05-03T02:17:50.925Z,7.10
2023-05-03T02:20:58.854Z,7.20
2023-05-03T02:24:07.736Z,7.50
2023-05-03T02:27:16.140Z,6.90
2023-05-03T02:30:26.842Z,7.20
2023-05-03T02:33:35.154Z,7.30
2023-05-03T02:36:43.818Z,6.30
2023-05-03T02:39:54.076Z,8.10
2023-05-03T02:43:02.873Z,9.70
2023-05-03T02:46:12.321Z,7.50
2023-05-03T02:49:22.087Z,5.60
2023-05-03T02:52:30.878Z,6.60
2023-05-03T02:55:39.805Z,8.90
2023-05-03T02:58:50.574Z,10.50
2023-05-03T03:01:59.113Z,6.90
2023-05-03T03:05:07.995Z,11.40
2023-05-03T03:08:16.862Z,7.00
2023-05-03T03:11:26.869Z,7.80
2023-05-03T03:14:35.396Z,10.10
2023-05-03T03:17:43.690Z,7.70
2023-05-03T03:20:53.276Z,9.50
2023-05-03T03:24:02.779Z,6.70
2023-05-03T03:27:11.703Z,10.50
2023-05-03T03:30:21.832Z,9.50
2023-05-03T03:33:29.697Z,8.40
2023-05-03T03:36:37.962Z,8.20
2023-05-03T03:39:48.724Z,8.00
2023-05-03T03:42:57.549Z,6.70
2023-05-03T03:46:05.476Z,7.00
2023-05-03T03:49:15.750Z,9.50
2023-05-03T03:52:23.693Z,7.70
2023-05-03T03:55:32.382Z,7.40
2023-05-03T03:58:40.651Z,7.60
2023-05-03T04:01:50.724Z,18.10
2023-05-03T04:04:59.807Z,10.10
2023-05-03T04:08:08.624Z,10.00
2023-05-03T04:11:18.355Z,11.60
2023-05-03T04:14:27.190Z,11.70
2023-05-03T04:17:36.085Z,9.10
2023-05-03T04:20:45.746Z,7.30
2023-05-03T04:23:54.667Z,7.30
2023-05-03T04:27:02.614Z,8.30
2023-05-03T04:30:12.586Z,6.70
2023-05-03T04:33:22.213Z,10.50
2023-05-03T04:36:30.606Z,8.50
2023-05-03T04:39:38.964Z,9.20
2023-05-03T04:42:49.011Z,8.30
2023-05-03T04:45:57.889Z,7.40
2023-05-03T04:49:05.740Z,10.70
2023-05-03T04:52:15.722Z,12.90
2023-05-03T04:55:25.128Z,11.80
2023-05-03T04:58:33.252Z,10.30
2023-05-03T05:01:43.581Z,14.30
2023-05-03T05:04:51.876Z,11.30
2023-05-03T05:08:00.599Z,11.20
2023-05-03T05:11:10.759Z,10.60
2023-05-03T05:14:19.559Z,16.80
2023-05-03T05:17:28.103Z,9.60
2023-05-03T05:20:38.946Z,8.40
2023-05-03T05:23:47.712Z,10.30
2023-05-03T05:26:55.580Z,9.10
2023-05-03T05:30:04.985Z,8.00
2023-05-03T05:33:05.305Z,9.60
2023-05-03T05:36:13.611Z,9.70
2023-05-03T05:39:24.066Z,10.00
2023-05-03T05:42:33.981Z,12.40
2023-05-03T05:45:42.887Z,10.90
2023-05-03T05:48:50.805Z,10.70
2023-05-03T05:52:01.209Z,8.50
2023-05-03T05:55:09.434Z,15.60
2023-05-03T05:58:18.319Z,10.80
2023-05-03T06:01:28.614Z,10.10
2023-05-03T06:04:37.044Z,11.60
2023-05-03T06:07:45.788Z,8.70
2023-05-03T06:10:54.987Z,11.80
2023-05-03T06:14:05.282Z,10.40
2023-05-03T06:17:13.291Z,11.80
2023-05-03T06:20:22.133Z,10.90
2023-05-03T06:23:31.676Z,8.00
2023-05-03T06:27:18.278Z,8.70
2023-05-03T06:30:26.672Z,9.60
2023-05-03T06:33:37.065Z,11.50
2023-05-03T06:36:45.587Z,10.40
2023-05-03T06:39:54.578Z,11.10
2023-05-03T06:43:03.988Z,8.80
2023-05-03T06:46:12.929Z,11.40
2023-05-03T06:49:21.047Z,9.10
2023-05-03T06:52:30.757Z,7.50
2023-05-03T06:55:39.764Z,10.60
2023-05-03T06:58:48.606Z,8.60
2023-05-03T07:01:58.382Z,7.50
2023-05-03T07:05:06.618Z,7.20
2023-05-03T07:08:15.513Z,2.00
2023-05-03T07:11:23.908Z,4.00
2023-05-03T07:14:33.724Z,3.30
2023-05-03T07:17:42.535Z,6.40
2023-05-03T07:20:51.135Z,6.40
2023-05-03T07:24:01.333Z,4.50
2023-05-03T07:27:10.603Z,4.70
2023-05-03T07:30:19.324Z,5.70
2023-05-03T07:33:29.627Z,4.60
2023-05-03T07:36:38.536Z,6.30
2023-05-03T07:39:47.015Z,2.80
2023-05-03T07:42:57.824Z,3.10
2023-05-03T07:46:06.083Z,4.20
2023-05-03T07:49:14.853Z,2.50
2023-05-03T07:52:23.578Z,4.80
2023-05-03T07:55:33.732Z,3.70
2023-05-03T07:58:43.700Z,6.50
2023-05-03T08:01:42.547Z,6.00
2023-05-03T08:04:52.912Z,4.60
2023-05-03T08:08:01.432Z,3.60
2023-05-03T08:11:10.110Z,4.10
2023-05-03T08:14:19.738Z,5.90
2023-05-03T08:17:27.945Z,4.20
2023-05-03T08:20:37.244Z,3.20
2023-05-03T08:23:46.922Z,3.90
2023-05-03T08:26:55.178Z,4.20
2023-05-03T08:30:04.178Z,5.40
2023-05-03T08:33:12.573Z,4.30
2023-05-03T08:36:22.431Z,4.50
2023-05-03T08:39:31.285Z,3.90
2023-05-03T08:42:39.337Z,4.40
2023-05-03T08:45:49.088Z,3.70
2023-05-03T08:48:57.660Z,4.80
2023-05-03T08:52:06.005Z,2.50
2023-05-03T08:55:15.640Z,3.60
2023-05-03T08:58:24.128Z,4.00
2023-05-03T09:01:32.884Z,3.20
2023-05-03T09:04:42.745Z,2.40
2023-05-03T09:07:51.032Z,3.10
2023-05-03T09:10:59.565Z,3.00
2023-05-03T09:14:09.338Z,4.30
2023-05-03T09:17:17.252Z,4.70
2023-05-03T09:20:25.835Z,4.30
2023-05-03T09:23:33.904Z,4.80
2023-05-03T09:26:43.578Z,5.00
2023-05-03T09:29:52.157Z,3.70
2023-05-03T09:33:00.133Z,3.70
2023-05-03T09:36:10.202Z,3.40
2023-05-03T09:39:18.869Z,4.20
2023-05-03T09:42:26.826Z,3.30
2023-05-03T09:45:36.877Z,3.20
2023-05-03T09:48:45.360Z,3.30
2023-05-03T09:51:54.161Z,4.90
2023-05-03T09:55:04.040Z,5.30
2023-05-03T09:58:12.553Z,5.60
2023-05-03T10:01:21.066Z,5.40
2023-05-03T10:04:29.477Z,4.00
2023-05-03T10:07:39.270Z,4.00
2023-05-03T10:10:47.975Z,6.60
2023-05-03T10:13:55.752Z,4.00
2023-05-03T10:17:05.780Z,2.50
2023-05-03T10:20:14.002Z,5.70
2023-05-03T10:23:22.326Z,2.50
2023-05-03T10:26:32.504Z,4.50
2023-05-03T10:29:40.761Z,5.20
2023-05-03T10:32:48.840Z,3.50
2023-05-03T10:35:59.045Z,5.20
2023-05-03T10:39:07.396Z,6.30
2023-05-03T10:42:15.612Z,5.10
2023-05-03T10:45:25.715Z,2.10
2023-05-03T10:48:34.292Z,3.20
2023-05-03T10:51:42.572Z,4.00
2023-05-03T10:54:50.841Z,4.30
2023-05-03T10:58:00.963Z,4.60
2023-05-03T11:01:09.243Z,3.60
2023-05-03T11:04:17.522Z,3.70
2023-05-03T11:07:27.549Z,5.40
2023-05-03T11:10:35.489Z,4.40
2023-05-03T11:13:44.190Z,3.00
2023-05-03T11:16:54.358Z,3.40
2023-05-03T11:20:02.258Z,4.00
2023-05-03T11:23:10.722Z,4.40
2023-05-03T11:26:20.540Z,4.80
2023-05-03T11:29:28.757Z,2.30
2023-05-03T11:32:37.446Z,3.80
2023-05-03T11:35:45.939Z,4.30
2023-05-03T11:38:55.716Z,5.20
2023-05-03T11:42:04.707Z,3.60
2023-05-03T11:45:13.354Z,3.80
2023-05-03T11:48:23.281Z,3.90
2023-05-03T11:51:31.650Z,4.60
2023-05-03T11:54:39.920Z,3.20
2023-05-03T11:57:49.443Z,5.80
2023-05-03T12:00:57.710Z,3.90
2023-05-03T12:04:06.989Z,4.60
2023-05-03T12:07:19.691Z,2.90
2023-05-03T12:10:22.908Z,7.10
2023-05-03T12:13:22.592Z,1.50
2023-05-03T12:16:34.205Z,4.80
2023-05-03T12:19:34.391Z,3.50
2023-05-03T12:22:44.822Z,2.90
2023-05-03T12:25:53.289Z,4.30
2023-05-03T12:29:06.431Z,4.80
2023-05-03T12:32:05.160Z,3.00
2023-05-03T12:35:14.517Z,4.90
2023-05-03T12:38:16.668Z,4.70
2023-05-03T12:41:21.186Z,5.70
2023-05-03T12:44:23.251Z,5.30
2023-05-03T12:47:28.372Z,5.60
2023-05-03T12:50:30.935Z,6.40
2023-05-03T12:53:29.236Z,3.70
2023-05-03T12:56:40.232Z,5.70
2023-05-03T12:59:42.620Z,5.00
2023-05-03T13:03:19.938Z,5.60
2023-05-03T13:05:46.565Z,4.50
2023-05-03T13:09:02.352Z,3.60
2023-05-03T13:12:00.516Z,5.30
2023-05-03T13:15:08.592Z,4.40
2023-05-03T13:18:18.895Z,3.70
2023-05-03T13:21:26.761Z,4.10
2023-05-03T13:24:35.362Z,4.10
2023-05-03T13:27:45.465Z,2.90
2023-05-03T13:30:53.327Z,4.10
2023-05-03T13:34:02.219Z,4.40
2023-05-03T13:37:10.349Z,4.20
2023-05-03T13:40:19.940Z,5.60
2023-05-03T13:43:28.867Z,5.00
2023-05-03T13:46:37.504Z,5.50
2023-05-03T13:49:47.402Z,3.70
2023-05-03T13:52:56.449Z,6.30
2023-05-03T13:56:04.999Z,3.40
2023-05-03T13:59:14.706Z,5.70
2023-05-03T14:02:23.456Z,4.90
2023-05-03T14:05:31.744Z,3.50
2023-05-03T14:08:41.521Z,6.40
2023-05-03T14:11:49.814Z,2.90
2023-05-03T14:14:58.079Z,5.80
2023-05-03T14:18:07.167Z,5.40
2023-05-03T14:21:17.169Z,4.60
2023-05-03T14:24:25.385Z,2.80
2023-05-03T14:27:34.115Z,2.90
2023-05-03T14:30:43.522Z,5.30
2023-05-03T14:33:52.187Z,8.10
2023-05-03T14:37:01.096Z,3.50
2023-05-03T14:40:10.539Z,4.20
2023-05-03T14:43:19.224Z,5.60
2023-05-03T14:46:27.686Z,4.20
2023-05-03T14:49:37.285Z,4.50
2023-05-03T14:52:45.870Z,4.70
2023-05-03T14:55:54.435Z,6.50
2023-05-03T14:59:03.868Z,3.40
2023-05-03T15:02:12.843Z,6.00
2023-05-03T15:05:21.233Z,3.80
2023-05-03T15:08:29.520Z,4.80
2023-05-03T15:11:39.657Z,6.80
2023-05-03T15:14:47.853Z,3.60
2023-05-03T15:17:56.197Z,3.70
2023-05-03T15:21:05.458Z,4.40
2023-05-03T15:24:14.124Z,6.10
2023-05-03T15:27:22.668Z,6.00
2023-05-03T15:30:32.910Z,5.40
2023-05-03T15:33:41.519Z,3.50
2023-05-03T15:36:49.879Z,5.20
2023-05-03T15:39:59.361Z,3.60
2023-05-03T15:43:08.772Z,3.80
2023-05-03T15:46:17.753Z,6.60
2023-05-03T15:49:25.639Z,4.80
2023-05-03T15:52:36.124Z,4.00
2023-05-03T15:55:44.570Z,5.20
2023-05-03T15:58:52.666Z,3.60
2023-05-03T16:02:02.799Z,3.50
2023-05-03T16:05:11.302Z,6.60
2023-05-03T16:08:19.638Z,3.80
2023-05-03T16:11:29.602Z,2.00
2023-05-03T16:14:38.113Z,3.00
2023-05-03T16:17:46.441Z,3.20
2023-05-03T16:20:56.812Z,3.90
2023-05-03T16:24:06.140Z,5.90
2023-05-03T16:27:14.795Z,2.90
2023-05-03T16:30:25.170Z,3.90
2023-05-03T16:33:33.959Z,4.40
2023-05-03T16:36:41.892Z,9.30
2023-05-03T16:39:50.084Z,3.90
2023-05-03T16:42:50.130Z,3.30
2023-05-03T16:45:58.828Z,3.20
2023-05-03T16:49:07.042Z,2.90
2023-05-03T16:52:17.388Z,4.20
2023-05-03T16:55:25.466Z,4.70
2023-05-03T16:58:34.171Z,3.40
2023-05-03T17:01:44.412Z,3.10
2023-05-03T17:04:52.725Z,6.00
2023-05-03T17:08:01.591Z,2.30
2023-05-03T17:11:11.306Z,6.30
2023-05-03T17:14:20.084Z,4.60
2023-05-03T17:17:28.554Z,6.80
2023-05-03T17:20:36.940Z,1.90
2023-05-03T17:23:46.663Z,2.70
2023-05-03T17:26:54.528Z,5.00
2023-05-03T17:30:03.403Z,4.20
2023-05-03T17:33:04.389Z,2.30
2023-05-03T17:36:12.727Z,5.10
2023-05-03T17:39:22.098Z,2.30
2023-05-03T17:42:31.500Z,5.40
2023-05-03T17:45:40.605Z,4.60
2023-05-03T17:48:49.824Z,2.30
2023-05-03T17:51:59.753Z,3.40
2023-05-03T17:55:08.338Z,4.30
2023-05-03T17:58:17.195Z,4.90
2023-05-03T18:01:25.934Z,4.60
2023-05-03T18:04:35.337Z,3.50
2023-05-03T18:07:44.473Z,2.80
2023-05-03T18:10:53.364Z,5.00
2023-05-03T18:14:02.919Z,6.60
2023-05-03T18:17:11.926Z,2.40
2023-05-03T18:20:19.926Z,3.20
2023-05-03T18:23:30.943Z,5.10
2023-05-03T18:26:39.775Z,5.20
2023-05-03T18:29:48.192Z,4.60
2023-05-03T18:32:58.730Z,7.70
2023-05-03T18:36:07.052Z,2.50
2023-05-03T18:39:15.291Z,3.90
2023-05-03T18:42:24.186Z,6.40
2023-05-03T18:45:34.404Z,2.60
2023-05-03T18:48:42.759Z,5.10
2023-05-03T18:51:51.701Z,5.00
2023-05-03T18:55:01.996Z,3.40
2023-05-03T18:58:09.938Z,7.40
2023-05-03T19:01:19.026Z,2.30
2023-05-03T19:04:19.238Z,3.20
2023-05-03T19:07:27.878Z,4.70
2023-05-03T19:10:36.278Z,3.60
2023-05-03T19:13:46.644Z,3.60
2023-05-03T19:16:54.773Z,4.00
2023-05-03T19:20:03.708Z,3.50
2023-05-03T19:23:12.174Z,4.40
2023-05-03T19:26:21.647Z,4.60
2023-05-03T19:29:30.564Z,2.70
2023-05-03T19:32:39.683Z,4.00
2023-05-03T19:35:49.539Z,2.80
2023-05-03T19:38:58.292Z,4.50
2023-05-03T19:42:06.606Z,5.50
2023-05-03T19:45:16.950Z,3.00
2023-05-03T19:48:25.033Z,3.40
2023-05-03T19:51:33.518Z,2.20
2023-05-03T19:54:44.064Z,4.30
2023-05-03T19:57:52.274Z,4.40
2023-05-03T20:01:01.334Z,5.60
2023-05-03T20:04:11.463Z,3.70
2023-05-03T20:07:19.937Z,4.60
2023-05-03T20:10:28.586Z,4.60
2023-05-03T20:13:37.143Z,5.10
2023-05-03T20:16:47.429Z,2.60
2023-05-03T20:19:56.477Z,3.60
2023-05-03T20:23:04.703Z,3.60
2023-05-03T20:26:14.785Z,3.10
2023-05-03T20:29:23.237Z,5.50
2023-05-03T20:32:31.792Z,2.90
2023-05-03T20:35:41.992Z,3.80
2023-05-03T20:38:50.672Z,3.90
2023-05-03T20:41:59.296Z,2.90
2023-05-03T20:45:08.887Z,3.90
2023-05-03T20:48:17.718Z,7.30
2023-05-03T20:51:26.861Z,6.80
2023-05-03T20:54:36.156Z,5.00
2023-05-03T20:57:46.426Z,5.20
2023-05-03T21:00:57.560Z,4.70
2023-05-03T21:03:55.931Z,6.00
2023-05-03T21:07:06.209Z,5.90
2023-05-03T21:10:14.231Z,3.10
2023-05-03T21:13:23.327Z,7.70
2023-05-03T21:16:33.479Z,2.80
2023-05-03T21:19:42.527Z,5.00
2023-05-03T21:22:50.490Z,4.80
2023-05-03T21:25:54.425Z,2.60
2023-05-03T21:28:54.437Z,4.70
2023-05-03T21:32:03.408Z,4.00
2023-05-03T21:35:12.063Z,4.00
2023-05-03T21:38:21.640Z,4.90
2023-05-03T21:41:30.016Z,3.60
2023-05-03T21:44:38.977Z,4.50
2023-05-03T21:47:48.841Z,3.10
2023-05-03T21:50:57.071Z,7.50
2023-05-03T21:54:05.785Z,6.30
2023-05-03T21:57:15.823Z,4.00
2023-05-03T22:00:25.188Z,4.70
2023-05-03T22:03:33.905Z,5.30
2023-05-03T22:06:43.804Z,4.80
2023-05-03T22:09:52.745Z,5.20
2023-05-03T22:13:01.589Z,3.80
2023-05-03T22:16:11.781Z,5.60
2023-05-03T22:19:20.756Z,3.60
2023-05-03T22:22:29.198Z,4.10
2023-05-03T22:25:38.377Z,4.40
2023-05-03T22:28:39.122Z,5.70
2023-05-03T22:31:48.683Z,7.30
2023-05-03T22:34:57.213Z,4.00
2023-05-03T22:37:56.911Z,7.80
2023-05-03T22:41:05.986Z,4.30
2023-05-03T22:44:14.440Z,7.60
2023-05-03T22:47:25.315Z,5.10
2023-05-03T22:50:34.373Z,3.80
2023-05-03T22:53:42.998Z,6.50
2023-05-03T22:56:53.338Z,3.40
2023-05-03T23:00:02.270Z,4.40
2023-05-03T23:03:10.825Z,3.60
2023-05-03T23:06:20.125Z,4.70
2023-05-03T23:09:29.926Z,5.80
2023-05-03T23:12:38.864Z,4.60
2023-05-03T23:15:47.670Z,3.90
2023-05-03T23:18:58.124Z,6.50
2023-05-03T23:22:06.532Z,7.10
2023-05-03T23:25:14.839Z,6.40
2023-05-03T23:28:25.515Z,10.40
2023-05-03T23:31:34.936Z,5.70
2023-05-03T23:34:44.851Z,6.80
2023-05-03T23:37:55.523Z,9.30
2023-05-03T23:41:03.893Z,6.60
2023-05-03T23:44:12.685Z,6.50
2023-05-03T23:47:23.224Z,6.80
2023-05-03T23:50:31.732Z,9.50
2023-05-03T23:53:40.737Z,5.30
2023-05-03T23:56:49.120Z,9.60
2023-05-03T23:59:59.488Z,6.90
